sensor_id;sensor_type;location;lat;lon;timestamp;P1;durP1;ratioP1;P2;durP2;ratioP2
10389;SDS011;5241;47.830;12.972;2023-12-22T00:02:06;0.27;;;0.27;;
10389;SDS011;5241;47.830;12.972;2023-12-22T00:04:32;0.27;;;0.27;;
10389;SDS011;5241;47.830;12.972;2023-12-22T00:06:57;0.27;;;0.23;;
10389;SDS011;5241;47.830;12.972;2023-12-22T00:09:23;0.30;;;0.30;;
10389;SDS011;5241;47.830;12.972;2023-12-22T00:11:49;0.20;;;0.20;;
10389;SDS011;5241;47.830;12.972;2023-12-22T00:14:14;1.03;;;0.30;;
10389;SDS011;5241;47.830;12.972;2023-12-22T00:16:40;0.70;;;0.60;;
10389;SDS011;5241;47.830;12.972;2023-12-22T00:19:05;0.30;;;0.30;;
10389;SDS011;5241;47.830;12.972;2023-12-22T00:21:31;0.40;;;0.30;;
10389;SDS011;5241;47.830;12.972;2023-12-22T00:23:57;0.63;;;0.30;;
10389;SDS011;5241;47.830;12.972;2023-12-22T00:26:23;0.20;;;0.20;;
10389;SDS011;5241;47.830;12.972;2023-12-22T00:28:48;0.30;;;0.30;;
10389;SDS011;5241;47.830;12.972;2023-12-22T00:31:14;0.20;;;0.20;;
10389;SDS011;5241;47.830;12.972;2023-12-22T00:33:39;1.00;;;0.30;;
10389;SDS011;5241;47.830;12.972;2023-12-22T00:36:05;0.30;;;0.30;;
10389;SDS011;5241;47.830;12.972;2023-12-22T00:38:30;0.60;;;0.30;;
10389;SDS011;5241;47.830;12.972;2023-12-22T00:40:56;0.20;;;0.20;;
10389;SDS011;5241;47.830;12.972;2023-12-22T00:43:22;1.00;;;0.13;;
10389;SDS011;5241;47.830;12.972;2023-12-22T00:45:47;0.10;;;0.10;;
10389;SDS011;5241;47.830;12.972;2023-12-22T00:48:13;0.30;;;0.20;;
10389;SDS011;5241;47.830;12.972;2023-12-22T00:50:38;0.40;;;0.30;;
10389;SDS011;5241;47.830;12.972;2023-12-22T00:53:04;0.20;;;0.20;;
10389;SDS011;5241;47.830;12.972;2023-12-22T00:55:29;0.60;;;0.30;;
10389;SDS011;5241;47.830;12.972;2023-12-22T00:57:55;0.10;;;0.10;;
10389;SDS011;5241;47.830;12.972;2023-12-22T01:00:20;0.13;;;0.13;;
10389;SDS011;5241;47.830;12.972;2023-12-22T01:02:46;3.17;;;0.40;;
10389;SDS011;5241;47.830;12.972;2023-12-22T01:05:11;0.70;;;0.20;;
10389;SDS011;5241;47.830;12.972;2023-12-22T01:07:37;0.17;;;0.17;;
10389;SDS011;5241;47.830;12.972;2023-12-22T01:10:02;0.20;;;0.20;;
10389;SDS011;5241;47.830;12.972;2023-12-22T01:12:29;0.30;;;0.30;;
10389;SDS011;5241;47.830;12.972;2023-12-22T01:14:55;1.70;;;0.50;;
10389;SDS011;5241;47.830;12.972;2023-12-22T01:17:21;0.20;;;0.20;;
10389;SDS011;5241;47.830;12.972;2023-12-22T01:19:47;0.30;;;0.30;;
10389;SDS011;5241;47.830;12.972;2023-12-22T01:22:13;0.37;;;0.30;;
10389;SDS011;5241;47.830;12.972;2023-12-22T01:24:39;0.80;;;0.30;;
10389;SDS011;5241;47.830;12.972;2023-12-22T01:27:08;0.33;;;0.23;;
10389;SDS011;5241;47.830;12.972;2023-12-22T01:29:34;0.27;;;0.20;;
10389;SDS011;5241;47.830;12.972;2023-12-22T01:31:59;0.30;;;0.23;;
10389;SDS011;5241;47.830;12.972;2023-12-22T01:34:25;0.20;;;0.20;;
10389;SDS011;5241;47.830;12.972;2023-12-22T01:36:50;0.70;;;0.60;;
10389;SDS011;5241;47.830;12.972;2023-12-22T01:39:16;0.47;;;0.30;;
10389;SDS011;5241;47.830;12.972;2023-12-22T01:41:42;0.13;;;0.13;;
10389;SDS011;5241;47.830;12.972;2023-12-22T01:44:08;0.30;;;0.27;;
10389;SDS011;5241;47.830;12.972;2023-12-22T01:46:34;0.20;;;0.20;;
10389;SDS011;5241;47.830;12.972;2023-12-22T01:49:00;0.20;;;0.20;;
10389;SDS011;5241;47.830;12.972;2023-12-22T01:51:27;0.30;;;0.30;;
10389;SDS011;5241;47.830;12.972;2023-12-22T01:53:57;0.77;;;0.30;;
10389;SDS011;5241;47.830;12.972;2023-12-22T01:56:24;0.20;;;0.20;;
10389;SDS011;5241;47.830;12.972;2023-12-22T01:58:50;0.20;;;0.20;;
10389;SDS011;5241;47.830;12.972;2023-12-22T02:01:20;1.20;;;0.60;;
10389;SDS011;5241;47.830;12.972;2023-12-22T02:03:50;3.10;;;1.00;;
10389;SDS011;5241;47.830;12.972;2023-12-22T02:06:19;1.53;;;0.97;;
10389;SDS011;5241;47.830;12.972;2023-12-22T02:08:48;3.77;;;1.23;;
10389;SDS011;5241;47.830;12.972;2023-12-22T02:11:14;1.70;;;0.90;;
10389;SDS011;5241;47.830;12.972;2023-12-22T02:13:41;2.27;;;1.20;;
10389;SDS011;5241;47.830;12.972;2023-12-22T02:16:26;1.43;;;0.90;;
10389;SDS011;5241;47.830;12.972;2023-12-22T02:22:03;0.60;;;0.43;;
10389;SDS011;5241;47.830;12.972;2023-12-22T02:24:30;1.60;;;0.50;;
10389;SDS011;5241;47.830;12.972;2023-12-22T02:26:56;0.70;;;0.50;;
10389;SDS011;5241;47.830;12.972;2023-12-22T02:29:30;0.27;;;0.27;;
10389;SDS011;5241;47.830;12.972;2023-12-22T02:31:59;1.00;;;0.20;;
10389;SDS011;5241;47.830;12.972;2023-12-22T02:34:27;0.20;;;0.17;;
10389;SDS011;5241;47.830;12.972;2023-12-22T02:36:55;0.50;;;0.50;;
10389;SDS011;5241;47.830;12.972;2023-12-22T02:39:22;1.40;;;0.50;;
10389;SDS011;5241;47.830;12.972;2023-12-22T02:41:48;0.47;;;0.47;;
10389;SDS011;5241;47.830;12.972;2023-12-22T02:44:14;0.30;;;0.30;;
10389;SDS011;5241;47.830;12.972;2023-12-22T02:46:40;0.50;;;0.50;;
10389;SDS011;5241;47.830;12.972;2023-12-22T02:49:06;0.33;;;0.30;;
10389;SDS011;5241;47.830;12.972;2023-12-22T02:51:32;0.37;;;0.37;;
10389;SDS011;5241;47.830;12.972;2023-12-22T02:53:57;0.20;;;0.20;;
10389;SDS011;5241;47.830;12.972;2023-12-22T02:56:23;0.23;;;0.23;;
10389;SDS011;5241;47.830;12.972;2023-12-22T02:58:48;0.10;;;0.10;;
10389;SDS011;5241;47.830;12.972;2023-12-22T03:01:14;0.40;;;0.33;;
10389;SDS011;5241;47.830;12.972;2023-12-22T03:03:39;1.03;;;0.53;;
10389;SDS011;5241;47.830;12.972;2023-12-22T03:06:05;0.20;;;0.20;;
10389;SDS011;5241;47.830;12.972;2023-12-22T03:08:30;0.20;;;0.20;;
10389;SDS011;5241;47.830;12.972;2023-12-22T03:10:56;0.30;;;0.20;;
10389;SDS011;5241;47.830;12.972;2023-12-22T03:13:21;0.10;;;0.10;;
10389;SDS011;5241;47.830;12.972;2023-12-22T03:15:47;0.30;;;0.30;;
10389;SDS011;5241;47.830;12.972;2023-12-22T03:18:12;0.23;;;0.17;;
10389;SDS011;5241;47.830;12.972;2023-12-22T03:20:38;0.47;;;0.37;;
10389;SDS011;5241;47.830;12.972;2023-12-22T03:23:04;0.20;;;0.20;;
10389;SDS011;5241;47.830;12.972;2023-12-22T03:25:29;0.17;;;0.17;;
10389;SDS011;5241;47.830;12.972;2023-12-22T03:27:55;0.20;;;0.20;;
10389;SDS011;5241;47.830;12.972;2023-12-22T03:30:20;0.47;;;0.20;;
10389;SDS011;5241;47.830;12.972;2023-12-22T03:32:46;0.20;;;0.20;;
10389;SDS011;5241;47.830;12.972;2023-12-22T03:35:11;0.43;;;0.23;;
10389;SDS011;5241;47.830;12.972;2023-12-22T03:37:37;0.20;;;0.20;;
10389;SDS011;5241;47.830;12.972;2023-12-22T03:40:02;0.10;;;0.10;;
10389;SDS011;5241;47.830;12.972;2023-12-22T03:42:28;0.10;;;0.10;;
10389;SDS011;5241;47.830;12.972;2023-12-22T03:44:54;0.40;;;0.40;;
10389;SDS011;5241;47.830;12.972;2023-12-22T03:47:19;0.30;;;0.30;;
10389;SDS011;5241;47.830;12.972;2023-12-22T03:49:45;0.10;;;0.10;;
10389;SDS011;5241;47.830;12.972;2023-12-22T03:52:10;0.10;;;0.10;;
10389;SDS011;5241;47.830;12.972;2023-12-22T03:54:36;0.10;;;0.10;;
10389;SDS011;5241;47.830;12.972;2023-12-22T03:57:02;0.10;;;0.10;;
10389;SDS011;5241;47.830;12.972;2023-12-22T03:59:27;1.30;;;0.17;;
10389;SDS011;5241;47.830;12.972;2023-12-22T04:01:53;1.07;;;0.20;;
10389;SDS011;5241;47.830;12.972;2023-12-22T04:04:20;0.10;;;0.10;;
10389;SDS011;5241;47.830;12.972;2023-12-22T04:06:47;0.30;;;0.30;;
10389;SDS011;5241;47.830;12.972;2023-12-22T04:09:13;0.20;;;0.20;;
10389;SDS011;5241;47.830;12.972;2023-12-22T04:11:39;0.10;;;0.10;;
10389;SDS011;5241;47.830;12.972;2023-12-22T04:14:06;0.20;;;0.20;;
10389;SDS011;5241;47.830;12.972;2023-12-22T04:16:31;0.20;;;0.20;;
10389;SDS011;5241;47.830;12.972;2023-12-22T04:18:57;0.30;;;0.30;;
10389;SDS011;5241;47.830;12.972;2023-12-22T04:21:22;0.17;;;0.17;;
10389;SDS011;5241;47.830;12.972;2023-12-22T04:23:48;0.30;;;0.30;;
10389;SDS011;5241;47.830;12.972;2023-12-22T04:26:13;0.20;;;0.10;;
10389;SDS011;5241;47.830;12.972;2023-12-22T04:28:39;0.20;;;0.20;;
10389;SDS011;5241;47.830;12.972;2023-12-22T04:31:04;0.30;;;0.30;;
10389;SDS011;5241;47.830;12.972;2023-12-22T04:33:31;0.10;;;0.10;;
10389;SDS011;5241;47.830;12.972;2023-12-22T04:35:56;0.17;;;0.17;;
10389;SDS011;5241;47.830;12.972;2023-12-22T04:38:22;0.10;;;0.10;;
10389;SDS011;5241;47.830;12.972;2023-12-22T04:40:48;0.20;;;0.20;;
10389;SDS011;5241;47.830;12.972;2023-12-22T04:43:13;0.33;;;0.20;;
10389;SDS011;5241;47.830;12.972;2023-12-22T04:45:39;0.23;;;0.23;;
10389;SDS011;5241;47.830;12.972;2023-12-22T04:48:04;0.20;;;0.20;;
10389;SDS011;5241;47.830;12.972;2023-12-22T04:50:30;0.00;;;0.00;;
10389;SDS011;5241;47.830;12.972;2023-12-22T04:52:56;0.20;;;0.20;;
10389;SDS011;5241;47.830;12.972;2023-12-22T04:55:22;0.10;;;0.10;;
10389;SDS011;5241;47.830;12.972;2023-12-22T04:57:47;0.13;;;0.10;;
10389;SDS011;5241;47.830;12.972;2023-12-22T05:00:13;0.20;;;0.20;;
10389;SDS011;5241;47.830;12.972;2023-12-22T05:02:39;0.00;;;0.00;;
10389;SDS011;5241;47.830;12.972;2023-12-22T05:05:04;0.13;;;0.13;;
10389;SDS011;5241;47.830;12.972;2023-12-22T05:07:30;0.20;;;0.20;;
10389;SDS011;5241;47.830;12.972;2023-12-22T05:09:56;0.10;;;0.10;;
10389;SDS011;5241;47.830;12.972;2023-12-22T05:12:22;0.20;;;0.20;;
10389;SDS011;5241;47.830;12.972;2023-12-22T05:14:47;0.27;;;0.27;;
10389;SDS011;5241;47.830;12.972;2023-12-22T05:17:13;0.20;;;0.20;;
10389;SDS011;5241;47.830;12.972;2023-12-22T05:19:38;0.23;;;0.23;;
10389;SDS011;5241;47.830;12.972;2023-12-22T05:22:04;0.30;;;0.30;;
10389;SDS011;5241;47.830;12.972;2023-12-22T05:24:29;0.40;;;0.40;;
10389;SDS011;5241;47.830;12.972;2023-12-22T05:26:55;0.30;;;0.30;;
10389;SDS011;5241;47.830;12.972;2023-12-22T05:29:20;0.40;;;0.40;;
10389;SDS011;5241;47.830;12.972;2023-12-22T05:31:46;0.30;;;0.30;;
10389;SDS011;5241;47.830;12.972;2023-12-22T05:34:11;0.47;;;0.47;;
10389;SDS011;5241;47.830;12.972;2023-12-22T05:36:37;0.63;;;0.40;;
10389;SDS011;5241;47.830;12.972;2023-12-22T05:39:02;0.20;;;0.20;;
10389;SDS011;5241;47.830;12.972;2023-12-22T05:41:28;0.57;;;0.53;;
10389;SDS011;5241;47.830;12.972;2023-12-22T05:43:54;0.40;;;0.40;;
10389;SDS011;5241;47.830;12.972;2023-12-22T05:46:19;0.47;;;0.47;;
10389;SDS011;5241;47.830;12.972;2023-12-22T05:48:45;0.40;;;0.40;;
10389;SDS011;5241;47.830;12.972;2023-12-22T05:51:10;0.57;;;0.53;;
10389;SDS011;5241;47.830;12.972;2023-12-22T05:53:39;2.03;;;0.60;;
10389;SDS011;5241;47.830;12.972;2023-12-22T05:56:05;0.40;;;0.40;;
10389;SDS011;5241;47.830;12.972;2023-12-22T05:58:42;0.30;;;0.30;;
10389;SDS011;5241;47.830;12.972;2023-12-22T06:01:07;0.67;;;0.50;;
10389;SDS011;5241;47.830;12.972;2023-12-22T06:03:38;0.67;;;0.50;;
10389;SDS011;5241;47.830;12.972;2023-12-22T06:06:04;1.63;;;0.50;;
10389;SDS011;5241;47.830;12.972;2023-12-22T06:08:29;0.30;;;0.30;;
10389;SDS011;5241;47.830;12.972;2023-12-22T06:10:55;0.77;;;0.57;;
10389;SDS011;5241;47.830;12.972;2023-12-22T06:13:20;0.50;;;0.50;;
10389;SDS011;5241;47.830;12.972;2023-12-22T06:15:46;1.03;;;0.67;;
10389;SDS011;5241;47.830;12.972;2023-12-22T06:18:11;0.93;;;0.60;;
10389;SDS011;5241;47.830;12.972;2023-12-22T06:20:37;0.40;;;0.40;;
10389;SDS011;5241;47.830;12.972;2023-12-22T06:23:02;0.50;;;0.50;;
10389;SDS011;5241;47.830;12.972;2023-12-22T06:25:29;0.40;;;0.40;;
10389;SDS011;5241;47.830;12.972;2023-12-22T06:27:54;0.30;;;0.30;;
10389;SDS011;5241;47.830;12.972;2023-12-22T06:30:20;0.40;;;0.40;;
10389;SDS011;5241;47.830;12.972;2023-12-22T06:32:45;0.13;;;0.13;;
10389;SDS011;5241;47.830;12.972;2023-12-22T06:35:11;0.20;;;0.20;;
10389;SDS011;5241;47.830;12.972;2023-12-22T06:37:36;0.10;;;0.10;;
10389;SDS011;5241;47.830;12.972;2023-12-22T06:40:02;0.77;;;0.33;;
10389;SDS011;5241;47.830;12.972;2023-12-22T06:42:28;0.20;;;0.20;;
10389;SDS011;5241;47.830;12.972;2023-12-22T06:44:54;1.27;;;0.40;;
10389;SDS011;5241;47.830;12.972;2023-12-22T06:47:19;0.30;;;0.30;;
10389;SDS011;5241;47.830;12.972;2023-12-22T06:49:45;0.37;;;0.37;;
10389;SDS011;5241;47.830;12.972;2023-12-22T06:52:10;0.53;;;0.50;;
10389;SDS011;5241;47.830;12.972;2023-12-22T06:54:36;0.53;;;0.53;;
10389;SDS011;5241;47.830;12.972;2023-12-22T06:57:01;0.43;;;0.23;;
10389;SDS011;5241;47.830;12.972;2023-12-22T06:59:27;0.27;;;0.27;;
10389;SDS011;5241;47.830;12.972;2023-12-22T07:01:53;0.50;;;0.50;;
10389;SDS011;5241;47.830;12.972;2023-12-22T07:04:18;0.40;;;0.30;;
10389;SDS011;5241;47.830;12.972;2023-12-22T07:06:44;0.40;;;0.40;;
10389;SDS011;5241;47.830;12.972;2023-12-22T07:11:42;0.30;;;0.30;;
10389;SDS011;5241;47.830;12.972;2023-12-22T07:14:09;0.77;;;0.30;;
10389;SDS011;5241;47.830;12.972;2023-12-22T07:16:35;0.30;;;0.30;;
10389;SDS011;5241;47.830;12.972;2023-12-22T07:19:01;0.40;;;0.40;;
10389;SDS011;5241;47.830;12.972;2023-12-22T07:21:27;1.20;;;0.40;;
10389;SDS011;5241;47.830;12.972;2023-12-22T07:23:52;0.30;;;0.30;;
10389;SDS011;5241;47.830;12.972;2023-12-22T07:26:18;0.33;;;0.33;;
10389;SDS011;5241;47.830;12.972;2023-12-22T07:28:43;0.60;;;0.40;;
10389;SDS011;5241;47.830;12.972;2023-12-22T07:31:09;0.67;;;0.50;;
10389;SDS011;5241;47.830;12.972;2023-12-22T07:33:34;0.40;;;0.40;;
10389;SDS011;5241;47.830;12.972;2023-12-22T07:36:00;0.50;;;0.50;;
10389;SDS011;5241;47.830;12.972;2023-12-22T07:38:26;0.50;;;0.30;;
10389;SDS011;5241;47.830;12.972;2023-12-22T07:40:52;0.20;;;0.20;;
10389;SDS011;5241;47.830;12.972;2023-12-22T07:43:17;1.73;;;0.57;;
10389;SDS011;5241;47.830;12.972;2023-12-22T07:45:43;0.83;;;0.57;;
10389;SDS011;5241;47.830;12.972;2023-12-22T07:48:08;2.63;;;0.93;;
10389;SDS011;5241;47.830;12.972;2023-12-22T07:50:34;0.80;;;0.60;;
10389;SDS011;5241;47.830;12.972;2023-12-22T07:52:59;1.63;;;0.63;;
10389;SDS011;5241;47.830;12.972;2023-12-22T07:55:25;0.97;;;0.87;;
10389;SDS011;5241;47.830;12.972;2023-12-22T07:57:51;1.00;;;0.53;;
10389;SDS011;5241;47.830;12.972;2023-12-22T08:00:17;0.60;;;0.60;;
10389;SDS011;5241;47.830;12.972;2023-12-22T08:02:42;0.57;;;0.53;;
10389;SDS011;5241;47.830;12.972;2023-12-22T08:05:08;0.50;;;0.50;;
10389;SDS011;5241;47.830;12.972;2023-12-22T08:07:34;1.50;;;1.20;;
10389;SDS011;5241;47.830;12.972;2023-12-22T08:10:00;2.23;;;1.40;;
10389;SDS011;5241;47.830;12.972;2023-12-22T08:12:27;4.57;;;2.20;;
10389;SDS011;5241;47.830;12.972;2023-12-22T08:14:53;1.70;;;1.37;;
10389;SDS011;5241;47.830;12.972;2023-12-22T08:17:18;1.03;;;0.93;;
10389;SDS011;5241;47.830;12.972;2023-12-22T08:19:44;3.73;;;1.93;;
10389;SDS011;5241;47.830;12.972;2023-12-22T08:22:10;3.63;;;1.87;;
10389;SDS011;5241;47.830;12.972;2023-12-22T08:24:35;23.53;;;7.23;;
10389;SDS011;5241;47.830;12.972;2023-12-22T08:27:01;17.83;;;4.70;;
10389;SDS011;5241;47.830;12.972;2023-12-22T08:29:27;5.97;;;2.10;;
10389;SDS011;5241;47.830;12.972;2023-12-22T08:31:52;1.97;;;1.33;;
10389;SDS011;5241;47.830;12.972;2023-12-22T08:34:18;4.93;;;1.93;;
10389;SDS011;5241;47.830;12.972;2023-12-22T08:36:44;0.63;;;0.50;;
10389;SDS011;5241;47.830;12.972;2023-12-22T08:39:10;0.40;;;0.40;;
10389;SDS011;5241;47.830;12.972;2023-12-22T08:41:35;0.30;;;0.30;;
10389;SDS011;5241;47.830;12.972;2023-12-22T08:44:05;1.23;;;0.50;;
10389;SDS011;5241;47.830;12.972;2023-12-22T08:46:31;1.00;;;0.53;;
10389;SDS011;5241;47.830;12.972;2023-12-22T08:48:57;0.90;;;0.80;;
10389;SDS011;5241;47.830;12.972;2023-12-22T08:51:24;0.87;;;0.63;;
10389;SDS011;5241;47.830;12.972;2023-12-22T08:53:54;0.27;;;0.27;;
10389;SDS011;5241;47.830;12.972;2023-12-22T08:56:23;1.37;;;0.27;;
10389;SDS011;5241;47.830;12.972;2023-12-22T08:58:51;0.47;;;0.37;;
10389;SDS011;5241;47.830;12.972;2023-12-22T09:01:17;0.40;;;0.40;;
10389;SDS011;5241;47.830;12.972;2023-12-22T09:03:44;0.40;;;0.40;;
10389;SDS011;5241;47.830;12.972;2023-12-22T09:06:16;0.30;;;0.30;;
10389;SDS011;5241;47.830;12.972;2023-12-22T09:08:42;0.70;;;0.30;;
10389;SDS011;5241;47.830;12.972;2023-12-22T09:11:09;0.70;;;0.70;;
10389;SDS011;5241;47.830;12.972;2023-12-22T09:13:42;1.33;;;0.97;;
10389;SDS011;5241;47.830;12.972;2023-12-22T09:16:08;1.23;;;0.90;;
10389;SDS011;5241;47.830;12.972;2023-12-22T09:18:34;1.07;;;0.97;;
10389;SDS011;5241;47.830;12.972;2023-12-22T09:21:00;1.00;;;0.73;;
10389;SDS011;5241;47.830;12.972;2023-12-22T09:23:26;0.73;;;0.73;;
10389;SDS011;5241;47.830;12.972;2023-12-22T09:25:52;0.70;;;0.67;;
10389;SDS011;5241;47.830;12.972;2023-12-22T09:28:18;1.30;;;0.97;;
10389;SDS011;5241;47.830;12.972;2023-12-22T09:30:43;1.63;;;1.00;;
10389;SDS011;5241;47.830;12.972;2023-12-22T09:33:09;0.60;;;0.60;;
10389;SDS011;5241;47.830;12.972;2023-12-22T09:35:35;0.63;;;0.60;;
10389;SDS011;5241;47.830;12.972;2023-12-22T09:38:01;0.50;;;0.50;;
10389;SDS011;5241;47.830;12.972;2023-12-22T09:40:28;1.67;;;1.10;;
10389;SDS011;5241;47.830;12.972;2023-12-22T09:42:54;1.17;;;0.90;;
10389;SDS011;5241;47.830;12.972;2023-12-22T09:45:20;0.60;;;0.60;;
10389;SDS011;5241;47.830;12.972;2023-12-22T09:47:46;1.93;;;0.80;;
10389;SDS011;5241;47.830;12.972;2023-12-22T09:50:13;3.50;;;0.70;;
10389;SDS011;5241;47.830;12.972;2023-12-22T09:52:41;0.83;;;0.70;;
10389;SDS011;5241;47.830;12.972;2023-12-22T09:55:09;0.50;;;0.50;;
10389;SDS011;5241;47.830;12.972;2023-12-22T09:57:35;0.83;;;0.47;;
10389;SDS011;5241;47.830;12.972;2023-12-22T10:00:02;0.43;;;0.43;;
10389;SDS011;5241;47.830;12.972;2023-12-22T10:02:31;0.90;;;0.70;;
10389;SDS011;5241;47.830;12.972;2023-12-22T10:04:59;0.30;;;0.30;;
10389;SDS011;5241;47.830;12.972;2023-12-22T10:07:25;1.33;;;0.60;;
10389;SDS011;5241;47.830;12.972;2023-12-22T10:09:51;1.67;;;0.60;;
10389;SDS011;5241;47.830;12.972;2023-12-22T10:12:18;0.50;;;0.50;;
10389;SDS011;5241;47.830;12.972;2023-12-22T10:14:44;1.37;;;0.70;;
10389;SDS011;5241;47.830;12.972;2023-12-22T10:17:12;0.67;;;0.60;;
10389;SDS011;5241;47.830;12.972;2023-12-22T10:19:39;0.77;;;0.73;;
10389;SDS011;5241;47.830;12.972;2023-12-22T10:22:04;0.57;;;0.57;;
10389;SDS011;5241;47.830;12.972;2023-12-22T10:24:36;1.90;;;1.60;;
10389;SDS011;5241;47.830;12.972;2023-12-22T10:27:12;1.23;;;0.97;;
10389;SDS011;5241;47.830;12.972;2023-12-22T10:29:38;1.10;;;0.80;;
10389;SDS011;5241;47.830;12.972;2023-12-22T10:32:05;1.33;;;0.90;;
10389;SDS011;5241;47.830;12.972;2023-12-22T10:34:31;3.27;;;1.10;;
10389;SDS011;5241;47.830;12.972;2023-12-22T10:36:58;1.07;;;0.70;;
10389;SDS011;5241;47.830;12.972;2023-12-22T10:39:30;1.00;;;0.70;;
10389;SDS011;5241;47.830;12.972;2023-12-22T10:41:57;1.00;;;0.60;;
10389;SDS011;5241;47.830;12.972;2023-12-22T10:44:24;0.77;;;0.60;;
10389;SDS011;5241;47.830;12.972;2023-12-22T10:46:50;0.87;;;0.80;;
10389;SDS011;5241;47.830;12.972;2023-12-22T10:49:16;2.40;;;1.10;;
10389;SDS011;5241;47.830;12.972;2023-12-22T10:51:42;0.50;;;0.50;;
10389;SDS011;5241;47.830;12.972;2023-12-22T10:54:07;1.30;;;0.67;;
10389;SDS011;5241;47.830;12.972;2023-12-22T10:56:34;0.60;;;0.60;;
10389;SDS011;5241;47.830;12.972;2023-12-22T10:58:59;2.33;;;1.00;;
10389;SDS011;5241;47.830;12.972;2023-12-22T11:01:29;1.07;;;0.90;;
10389;SDS011;5241;47.830;12.972;2023-12-22T11:03:57;1.03;;;0.80;;
10389;SDS011;5241;47.830;12.972;2023-12-22T11:06:26;1.63;;;0.80;;
10389;SDS011;5241;47.830;12.972;2023-12-22T11:08:54;0.83;;;0.73;;
10389;SDS011;5241;47.830;12.972;2023-12-22T11:11:33;0.50;;;0.50;;
10389;SDS011;5241;47.830;12.972;2023-12-22T11:14:00;1.10;;;0.60;;
10389;SDS011;5241;47.830;12.972;2023-12-22T11:16:27;0.63;;;0.50;;
10389;SDS011;5241;47.830;12.972;2023-12-22T11:18:54;0.60;;;0.37;;
10389;SDS011;5241;47.830;12.972;2023-12-22T11:21:23;0.60;;;0.50;;
10389;SDS011;5241;47.830;12.972;2023-12-22T11:23:50;0.40;;;0.40;;
10389;SDS011;5241;47.830;12.972;2023-12-22T11:26:20;1.80;;;0.33;;
10389;SDS011;5241;47.830;12.972;2023-12-22T11:28:48;0.30;;;0.30;;
10389;SDS011;5241;47.830;12.972;2023-12-22T11:31:15;0.30;;;0.30;;
10389;SDS011;5241;47.830;12.972;2023-12-22T11:33:45;0.47;;;0.47;;
10389;SDS011;5241;47.830;12.972;2023-12-22T11:36:12;0.30;;;0.30;;
10389;SDS011;5241;47.830;12.972;2023-12-22T11:38:39;0.10;;;0.10;;
10389;SDS011;5241;47.830;12.972;2023-12-22T11:41:06;2.90;;;0.30;;
10389;SDS011;5241;47.830;12.972;2023-12-22T11:43:39;3.30;;;0.60;;
10389;SDS011;5241;47.830;12.972;2023-12-22T11:46:05;0.77;;;0.50;;
10389;SDS011;5241;47.830;12.972;2023-12-22T11:48:31;1.30;;;1.20;;
10389;SDS011;5241;47.830;12.972;2023-12-22T11:50:57;6.10;;;2.17;;
10389;SDS011;5241;47.830;12.972;2023-12-22T11:53:24;2.17;;;1.60;;
10389;SDS011;5241;47.830;12.972;2023-12-22T11:55:57;3.07;;;0.53;;
10389;SDS011;5241;47.830;12.972;2023-12-22T12:01:03;0.40;;;0.40;;
10389;SDS011;5241;47.830;12.972;2023-12-22T12:03:31;1.40;;;0.70;;
10389;SDS011;5241;47.830;12.972;2023-12-22T12:06:10;0.60;;;0.60;;
10389;SDS011;5241;47.830;12.972;2023-12-22T12:08:38;1.90;;;1.33;;
10389;SDS011;5241;47.830;12.972;2023-12-22T12:11:04;0.70;;;0.53;;
10389;SDS011;5241;47.830;12.972;2023-12-22T12:13:31;1.40;;;0.47;;
10389;SDS011;5241;47.830;12.972;2023-12-22T12:16:01;0.57;;;0.57;;
10389;SDS011;5241;47.830;12.972;2023-12-22T12:18:28;3.27;;;2.20;;
10389;SDS011;5241;47.830;12.972;2023-12-22T12:20:54;2.57;;;1.73;;
10389;SDS011;5241;47.830;12.972;2023-12-22T12:23:20;2.40;;;1.10;;
10389;SDS011;5241;47.830;12.972;2023-12-22T12:25:48;1.03;;;0.87;;
10389;SDS011;5241;47.830;12.972;2023-12-22T12:28:14;0.80;;;0.73;;
10389;SDS011;5241;47.830;12.972;2023-12-22T12:30:43;2.20;;;0.70;;
10389;SDS011;5241;47.830;12.972;2023-12-22T12:33:09;0.47;;;0.47;;
10389;SDS011;5241;47.830;12.972;2023-12-22T12:35:37;0.80;;;0.80;;
10389;SDS011;5241;47.830;12.972;2023-12-22T12:38:03;1.43;;;1.33;;
10389;SDS011;5241;47.830;12.972;2023-12-22T12:40:29;1.10;;;0.97;;
10389;SDS011;5241;47.830;12.972;2023-12-22T12:42:57;1.00;;;0.70;;
10389;SDS011;5241;47.830;12.972;2023-12-22T12:45:23;1.00;;;0.90;;
10389;SDS011;5241;47.830;12.972;2023-12-22T12:47:59;1.50;;;1.40;;
10389;SDS011;5241;47.830;12.972;2023-12-22T12:50:28;1.07;;;1.00;;
10389;SDS011;5241;47.830;12.972;2023-12-22T12:52:56;1.00;;;0.90;;
10389;SDS011;5241;47.830;12.972;2023-12-22T12:55:22;0.67;;;0.67;;
10389;SDS011;5241;47.830;12.972;2023-12-22T12:57:49;1.07;;;0.97;;
10389;SDS011;5241;47.830;12.972;2023-12-22T13:00:16;1.67;;;1.00;;
10389;SDS011;5241;47.830;12.972;2023-12-22T13:03:01;2.30;;;0.90;;
10389;SDS011;5241;47.830;12.972;2023-12-22T13:05:29;0.90;;;0.70;;
10389;SDS011;5241;47.830;12.972;2023-12-22T13:08:12;1.77;;;0.73;;
10389;SDS011;5241;47.830;12.972;2023-12-22T13:10:38;2.10;;;0.97;;
10389;SDS011;5241;47.830;12.972;2023-12-22T13:13:04;1.13;;;0.80;;
10389;SDS011;5241;47.830;12.972;2023-12-22T13:15:30;1.80;;;0.50;;
10389;SDS011;5241;47.830;12.972;2023-12-22T13:17:56;0.77;;;0.53;;
10389;SDS011;5241;47.830;12.972;2023-12-22T13:20:22;1.20;;;0.83;;
10389;SDS011;5241;47.830;12.972;2023-12-22T13:22:48;1.17;;;0.70;;
10389;SDS011;5241;47.830;12.972;2023-12-22T13:25:14;1.40;;;1.30;;
10389;SDS011;5241;47.830;12.972;2023-12-22T13:27:46;2.63;;;0.70;;
10389;SDS011;5241;47.830;12.972;2023-12-22T13:30:13;0.73;;;0.70;;
10389;SDS011;5241;47.830;12.972;2023-12-22T13:33:01;2.03;;;1.07;;
10389;SDS011;5241;47.830;12.972;2023-12-22T13:35:27;1.87;;;0.80;;
10389;SDS011;5241;47.830;12.972;2023-12-22T13:37:53;0.87;;;0.87;;
10389;SDS011;5241;47.830;12.972;2023-12-22T13:40:19;1.23;;;0.70;;
10389;SDS011;5241;47.830;12.972;2023-12-22T13:42:53;3.53;;;1.33;;
10389;SDS011;5241;47.830;12.972;2023-12-22T13:45:22;1.77;;;0.63;;
10389;SDS011;5241;47.830;12.972;2023-12-22T13:47:49;0.70;;;0.53;;
10389;SDS011;5241;47.830;12.972;2023-12-22T13:50:15;0.40;;;0.40;;
10389;SDS011;5241;47.830;12.972;2023-12-22T13:52:41;2.33;;;0.70;;
10389;SDS011;5241;47.830;12.972;2023-12-22T13:55:14;1.40;;;0.70;;
10389;SDS011;5241;47.830;12.972;2023-12-22T13:57:40;1.00;;;0.70;;
10389;SDS011;5241;47.830;12.972;2023-12-22T14:00:28;0.83;;;0.60;;
10389;SDS011;5241;47.830;12.972;2023-12-22T14:02:54;0.87;;;0.60;;
10389;SDS011;5241;47.830;12.972;2023-12-22T14:05:19;0.93;;;0.67;;
10389;SDS011;5241;47.830;12.972;2023-12-22T14:07:45;0.93;;;0.57;;
10389;SDS011;5241;47.830;12.972;2023-12-22T14:10:11;0.80;;;0.70;;
10389;SDS011;5241;47.830;12.972;2023-12-22T14:12:38;0.93;;;0.60;;
10389;SDS011;5241;47.830;12.972;2023-12-22T14:15:07;0.50;;;0.50;;
10389;SDS011;5241;47.830;12.972;2023-12-22T14:17:34;1.83;;;0.80;;
10389;SDS011;5241;47.830;12.972;2023-12-22T14:19:59;1.50;;;0.97;;
10389;SDS011;5241;47.830;12.972;2023-12-22T14:22:25;0.97;;;0.50;;
10389;SDS011;5241;47.830;12.972;2023-12-22T14:24:51;1.53;;;0.40;;
10389;SDS011;5241;47.830;12.972;2023-12-22T14:27:17;1.93;;;0.67;;
10389;SDS011;5241;47.830;12.972;2023-12-22T14:29:43;2.37;;;1.10;;
10389;SDS011;5241;47.830;12.972;2023-12-22T14:32:09;3.40;;;1.90;;
10389;SDS011;5241;47.830;12.972;2023-12-22T14:34:37;0.93;;;0.80;;
10389;SDS011;5241;47.830;12.972;2023-12-22T14:37:03;0.77;;;0.60;;
10389;SDS011;5241;47.830;12.972;2023-12-22T14:39:28;1.13;;;0.70;;
10389;SDS011;5241;47.830;12.972;2023-12-22T14:41:55;0.30;;;0.27;;
10389;SDS011;5241;47.830;12.972;2023-12-22T14:44:21;0.40;;;0.40;;
10389;SDS011;5241;47.830;12.972;2023-12-22T14:46:46;0.40;;;0.40;;
10389;SDS011;5241;47.830;12.972;2023-12-22T14:49:12;2.43;;;0.37;;
10389;SDS011;5241;47.830;12.972;2023-12-22T14:51:38;0.70;;;0.50;;
10389;SDS011;5241;47.830;12.972;2023-12-22T14:54:06;1.17;;;0.90;;